sensor_id;sensor_type;location;lat;lon;timestamp;P1;durP1;ratioP1;P2;durP2;ratioP2
15218;SDS011;15623;53.986;11.676;2022-11-23T00:00:24;204.10;;;36.87;;
15218;SDS011;15623;53.986;11.676;2022-11-23T00:02:51;233.90;;;37.40;;
15218;SDS011;15623;53.986;11.676;2022-11-23T00:05:19;168.23;;;35.80;;
15218;SDS011;15623;53.986;11.676;2022-11-23T00:07:46;199.90;;;36.37;;
15218;SDS011;15623;53.986;11.676;2022-11-23T00:10:14;201.17;;;34.97;;
15218;SDS011;15623;53.986;11.676;2022-11-23T00:12:41;195.03;;;37.23;;
15218;SDS011;15623;53.986;11.676;2022-11-23T00:15:10;207.47;;;38.33;;
15218;SDS011;15623;53.986;11.676;2022-11-23T00:17:39;184.57;;;36.87;;
15218;SDS011;15623;53.986;11.676;2022-11-23T00:20:07;217.57;;;38.07;;
15218;SDS011;15623;53.986;11.676;2022-11-23T00:22:34;207.87;;;37.30;;
15218;SDS011;15623;53.986;11.676;2022-11-23T00:25:02;182.57;;;37.13;;
15218;SDS011;15623;53.986;11.676;2022-11-23T00:27:29;175.93;;;34.27;;
15218;SDS011;15623;53.986;11.676;2022-11-23T00:29:56;187.97;;;35.93;;
15218;SDS011;15623;53.986;11.676;2022-11-23T00:32:24;196.10;;;37.33;;
15218;SDS011;15623;53.986;11.676;2022-11-23T00:34:53;196.17;;;35.67;;
15218;SDS011;15623;53.986;11.676;2022-11-23T00:37:20;181.43;;;35.13;;
15218;SDS011;15623;53.986;11.676;2022-11-23T00:39:47;214.00;;;36.57;;
15218;SDS011;15623;53.986;11.676;2022-11-23T00:42:14;208.10;;;37.73;;
15218;SDS011;15623;53.986;11.676;2022-11-23T00:44:42;237.50;;;39.63;;
15218;SDS011;15623;53.986;11.676;2022-11-23T00:47:09;215.87;;;38.00;;
15218;SDS011;15623;53.986;11.676;2022-11-23T00:49:37;236.93;;;36.60;;
15218;SDS011;15623;53.986;11.676;2022-11-23T00:52:06;192.80;;;34.97;;
15218;SDS011;15623;53.986;11.676;2022-11-23T00:54:33;176.53;;;35.67;;
15218;SDS011;15623;53.986;11.676;2022-11-23T00:57:00;212.13;;;36.53;;
15218;SDS011;15623;53.986;11.676;2022-11-23T00:59:28;189.60;;;36.33;;
15218;SDS011;15623;53.986;11.676;2022-11-23T01:01:55;189.63;;;35.47;;
15218;SDS011;15623;53.986;11.676;2022-11-23T01:04:22;211.23;;;36.83;;
15218;SDS011;15623;53.986;11.676;2022-11-23T01:06:50;210.57;;;37.87;;
15218;SDS011;15623;53.986;11.676;2022-11-23T01:09:22;167.00;;;34.13;;
15218;SDS011;15623;53.986;11.676;2022-11-23T01:11:51;195.17;;;35.23;;
15218;SDS011;15623;53.986;11.676;2022-11-23T01:14:18;177.33;;;33.97;;
15218;SDS011;15623;53.986;11.676;2022-11-23T01:16:46;182.53;;;34.97;;
15218;SDS011;15623;53.986;11.676;2022-11-23T01:19:14;172.80;;;34.50;;
15218;SDS011;15623;53.986;11.676;2022-11-23T01:21:43;148.47;;;31.80;;
15218;SDS011;15623;53.986;11.676;2022-11-23T01:24:11;184.13;;;34.90;;
15218;SDS011;15623;53.986;11.676;2022-11-23T01:26:40;160.57;;;34.13;;
15218;SDS011;15623;53.986;11.676;2022-11-23T01:29:08;170.17;;;36.63;;
15218;SDS011;15623;53.986;11.676;2022-11-23T01:31:35;166.17;;;34.73;;
15218;SDS011;15623;53.986;11.676;2022-11-23T01:34:03;161.97;;;32.60;;
15218;SDS011;15623;53.986;11.676;2022-11-23T01:36:31;170.13;;;35.40;;
15218;SDS011;15623;53.986;11.676;2022-11-23T01:38:59;156.37;;;34.60;;
15218;SDS011;15623;53.986;11.676;2022-11-23T01:41:28;163.70;;;35.60;;
15218;SDS011;15623;53.986;11.676;2022-11-23T01:43:57;157.73;;;34.07;;
15218;SDS011;15623;53.986;11.676;2022-11-23T01:46:24;142.53;;;34.00;;
15218;SDS011;15623;53.986;11.676;2022-11-23T01:48:52;150.07;;;33.87;;
15218;SDS011;15623;53.986;11.676;2022-11-23T01:51:21;156.80;;;34.90;;
15218;SDS011;15623;53.986;11.676;2022-11-23T01:53:50;156.00;;;34.23;;
15218;SDS011;15623;53.986;11.676;2022-11-23T01:56:19;151.17;;;34.63;;
15218;SDS011;15623;53.986;11.676;2022-11-23T01:58:47;136.13;;;33.27;;
15218;SDS011;15623;53.986;11.676;2022-11-23T02:01:17;146.60;;;33.33;;
15218;SDS011;15623;53.986;11.676;2022-11-23T02:03:44;139.30;;;33.80;;
15218;SDS011;15623;53.986;11.676;2022-11-23T02:06:13;151.33;;;35.67;;
15218;SDS011;15623;53.986;11.676;2022-11-23T02:08:41;164.83;;;36.07;;
15218;SDS011;15623;53.986;11.676;2022-11-23T02:11:08;165.57;;;38.00;;
15218;SDS011;15623;53.986;11.676;2022-11-23T02:13:37;154.40;;;34.40;;
15218;SDS011;15623;53.986;11.676;2022-11-23T02:16:04;167.03;;;35.90;;
15218;SDS011;15623;53.986;11.676;2022-11-23T02:18:33;182.20;;;36.03;;
15218;SDS011;15623;53.986;11.676;2022-11-23T02:21:01;189.53;;;36.80;;
15218;SDS011;15623;53.986;11.676;2022-11-23T02:23:31;180.53;;;36.63;;
15218;SDS011;15623;53.986;11.676;2022-11-23T02:26:03;158.77;;;33.93;;
15218;SDS011;15623;53.986;11.676;2022-11-23T02:28:32;179.70;;;37.90;;
15218;SDS011;15623;53.986;11.676;2022-11-23T02:31:00;174.87;;;36.27;;
15218;SDS011;15623;53.986;11.676;2022-11-23T02:33:28;162.97;;;34.97;;
15218;SDS011;15623;53.986;11.676;2022-11-23T02:35:56;147.73;;;33.77;;
15218;SDS011;15623;53.986;11.676;2022-11-23T02:38:24;167.37;;;35.57;;
15218;SDS011;15623;53.986;11.676;2022-11-23T02:40:52;158.10;;;34.90;;
15218;SDS011;15623;53.986;11.676;2022-11-23T02:43:21;143.07;;;33.70;;
15218;SDS011;15623;53.986;11.676;2022-11-23T02:45:50;168.07;;;36.03;;
15218;SDS011;15623;53.986;11.676;2022-11-23T02:48:19;168.53;;;35.57;;
15218;SDS011;15623;53.986;11.676;2022-11-23T02:50:46;163.20;;;36.43;;
15218;SDS011;15623;53.986;11.676;2022-11-23T02:53:14;189.20;;;36.97;;
15218;SDS011;15623;53.986;11.676;2022-11-23T02:55:46;193.50;;;36.40;;
15218;SDS011;15623;53.986;11.676;2022-11-23T02:58:13;190.53;;;36.07;;
15218;SDS011;15623;53.986;11.676;2022-11-23T03:00:42;190.27;;;38.23;;
15218;SDS011;15623;53.986;11.676;2022-11-23T03:03:09;182.27;;;36.23;;
15218;SDS011;15623;53.986;11.676;2022-11-23T03:05:37;163.00;;;35.07;;
15218;SDS011;15623;53.986;11.676;2022-11-23T03:08:05;175.90;;;36.67;;
15218;SDS011;15623;53.986;11.676;2022-11-23T03:10:32;180.27;;;38.43;;
15218;SDS011;15623;53.986;11.676;2022-11-23T03:12:59;168.43;;;36.40;;
15218;SDS011;15623;53.986;11.676;2022-11-23T03:15:27;150.50;;;36.30;;
15218;SDS011;15623;53.986;11.676;2022-11-23T03:17:55;144.43;;;36.13;;
15218;SDS011;15623;53.986;11.676;2022-11-23T03:20:23;150.43;;;37.23;;
15218;SDS011;15623;53.986;11.676;2022-11-23T03:22:50;144.10;;;35.57;;
15218;SDS011;15623;53.986;11.676;2022-11-23T03:25:17;164.43;;;37.57;;
15218;SDS011;15623;53.986;11.676;2022-11-23T03:27:45;151.17;;;36.47;;
15218;SDS011;15623;53.986;11.676;2022-11-23T03:30:12;159.53;;;37.37;;
15218;SDS011;15623;53.986;11.676;2022-11-23T03:32:39;154.83;;;36.40;;
15218;SDS011;15623;53.986;11.676;2022-11-23T03:35:09;160.20;;;37.53;;
15218;SDS011;15623;53.986;11.676;2022-11-23T03:37:37;172.67;;;39.37;;
15218;SDS011;15623;53.986;11.676;2022-11-23T03:40:04;150.53;;;36.97;;
15218;SDS011;15623;53.986;11.676;2022-11-23T03:42:32;168.07;;;39.63;;
15218;SDS011;15623;53.986;11.676;2022-11-23T03:44:59;153.27;;;36.37;;
15218;SDS011;15623;53.986;11.676;2022-11-23T03:47:26;170.97;;;38.47;;
15218;SDS011;15623;53.986;11.676;2022-11-23T03:49:53;162.53;;;37.83;;
15218;SDS011;15623;53.986;11.676;2022-11-23T03:52:22;151.37;;;38.00;;
15218;SDS011;15623;53.986;11.676;2022-11-23T03:54:49;159.03;;;38.67;;
15218;SDS011;15623;53.986;11.676;2022-11-23T03:57:17;153.93;;;39.67;;
15218;SDS011;15623;53.986;11.676;2022-11-23T03:59:44;157.93;;;38.83;;
15218;SDS011;15623;53.986;11.676;2022-11-23T04:02:11;133.43;;;36.73;;
15218;SDS011;15623;53.986;11.676;2022-11-23T04:04:39;143.60;;;36.83;;
15218;SDS011;15623;53.986;11.676;2022-11-23T04:07:06;149.10;;;37.00;;
15218;SDS011;15623;53.986;11.676;2022-11-23T04:09:35;145.30;;;38.53;;
15218;SDS011;15623;53.986;11.676;2022-11-23T04:12:02;138.93;;;36.90;;
15218;SDS011;15623;53.986;11.676;2022-11-23T04:14:30;151.73;;;38.77;;
15218;SDS011;15623;53.986;11.676;2022-11-23T04:16:57;148.37;;;38.17;;
15218;SDS011;15623;53.986;11.676;2022-11-23T04:19:26;146.03;;;39.93;;
15218;SDS011;15623;53.986;11.676;2022-11-23T04:21:53;150.10;;;39.53;;
15218;SDS011;15623;53.986;11.676;2022-11-23T04:24:21;149.13;;;38.37;;
15218;SDS011;15623;53.986;11.676;2022-11-23T04:26:49;153.00;;;38.60;;
15218;SDS011;15623;53.986;11.676;2022-11-23T04:29:17;150.33;;;40.07;;
15218;SDS011;15623;53.986;11.676;2022-11-23T04:31:44;142.73;;;37.97;;
15218;SDS011;15623;53.986;11.676;2022-11-23T04:34:11;151.47;;;37.93;;
15218;SDS011;15623;53.986;11.676;2022-11-23T04:36:39;147.27;;;38.63;;
15218;SDS011;15623;53.986;11.676;2022-11-23T04:39:06;140.20;;;39.57;;
15218;SDS011;15623;53.986;11.676;2022-11-23T04:41:33;154.17;;;40.93;;
15218;SDS011;15623;53.986;11.676;2022-11-23T04:44:02;133.20;;;36.83;;
15218;SDS011;15623;53.986;11.676;2022-11-23T04:46:29;127.23;;;37.27;;
15218;SDS011;15623;53.986;11.676;2022-11-23T04:48:59;144.60;;;38.17;;
15218;SDS011;15623;53.986;11.676;2022-11-23T04:51:26;142.53;;;39.33;;
15218;SDS011;15623;53.986;11.676;2022-11-23T04:53:54;149.23;;;39.20;;
15218;SDS011;15623;53.986;11.676;2022-11-23T04:56:21;133.80;;;38.37;;
15218;SDS011;15623;53.986;11.676;2022-11-23T04:58:48;138.87;;;39.33;;
15218;SDS011;15623;53.986;11.676;2022-11-23T05:01:17;140.77;;;38.80;;
15218;SDS011;15623;53.986;11.676;2022-11-23T05:03:45;133.00;;;37.43;;
15218;SDS011;15623;53.986;11.676;2022-11-23T05:06:13;127.50;;;37.50;;
15218;SDS011;15623;53.986;11.676;2022-11-23T05:08:40;128.17;;;38.80;;
15218;SDS011;15623;53.986;11.676;2022-11-23T05:11:08;138.93;;;39.37;;
15218;SDS011;15623;53.986;11.676;2022-11-23T05:13:35;129.17;;;37.20;;
15218;SDS011;15623;53.986;11.676;2022-11-23T05:16:03;129.63;;;38.43;;
15218;SDS011;15623;53.986;11.676;2022-11-23T05:18:31;130.63;;;37.40;;
15218;SDS011;15623;53.986;11.676;2022-11-23T05:20:59;131.57;;;37.57;;
15218;SDS011;15623;53.986;11.676;2022-11-23T05:23:26;129.07;;;37.40;;
15218;SDS011;15623;53.986;11.676;2022-11-23T05:25:53;129.93;;;37.87;;
15218;SDS011;15623;53.986;11.676;2022-11-23T05:28:21;124.53;;;37.97;;
15218;SDS011;15623;53.986;11.676;2022-11-23T05:30:48;124.90;;;37.33;;
15218;SDS011;15623;53.986;11.676;2022-11-23T05:33:16;118.20;;;36.63;;
15218;SDS011;15623;53.986;11.676;2022-11-23T05:35:44;133.30;;;38.07;;
15218;SDS011;15623;53.986;11.676;2022-11-23T05:38:12;124.93;;;36.93;;
15218;SDS011;15623;53.986;11.676;2022-11-23T05:40:39;114.33;;;37.77;;
15218;SDS011;15623;53.986;11.676;2022-11-23T05:43:06;118.57;;;37.10;;
15218;SDS011;15623;53.986;11.676;2022-11-23T05:45:33;118.00;;;37.50;;
15218;SDS011;15623;53.986;11.676;2022-11-23T05:48:01;119.07;;;37.63;;
15218;SDS011;15623;53.986;11.676;2022-11-23T05:50:28;119.33;;;36.73;;
15218;SDS011;15623;53.986;11.676;2022-11-23T05:52:58;104.37;;;32.97;;
15218;SDS011;15623;53.986;11.676;2022-11-23T05:55:25;113.57;;;36.43;;
15218;SDS011;15623;53.986;11.676;2022-11-23T05:57:52;116.47;;;34.83;;
15218;SDS011;15623;53.986;11.676;2022-11-23T06:00:20;109.03;;;36.97;;
15218;SDS011;15623;53.986;11.676;2022-11-23T06:02:47;111.13;;;36.97;;
15218;SDS011;15623;53.986;11.676;2022-11-23T06:05:15;116.33;;;37.07;;
15218;SDS011;15623;53.986;11.676;2022-11-23T06:07:42;117.30;;;38.67;;
15218;SDS011;15623;53.986;11.676;2022-11-23T06:10:11;117.13;;;42.30;;
15218;SDS011;15623;53.986;11.676;2022-11-23T06:12:38;113.80;;;37.50;;
15218;SDS011;15623;53.986;11.676;2022-11-23T06:15:06;112.47;;;36.43;;
15218;SDS011;15623;53.986;11.676;2022-11-23T06:17:34;106.70;;;36.23;;
15218;SDS011;15623;53.986;11.676;2022-11-23T06:20:01;104.27;;;35.97;;
15218;SDS011;15623;53.986;11.676;2022-11-23T06:22:29;109.83;;;37.03;;
15218;SDS011;15623;53.986;11.676;2022-11-23T06:24:56;102.60;;;34.13;;
15218;SDS011;15623;53.986;11.676;2022-11-23T06:27:25;100.97;;;33.80;;
15218;SDS011;15623;53.986;11.676;2022-11-23T06:29:52;103.00;;;35.57;;
15218;SDS011;15623;53.986;11.676;2022-11-23T06:32:19;115.03;;;38.87;;
15218;SDS011;15623;53.986;11.676;2022-11-23T06:34:47;113.77;;;40.87;;
15218;SDS011;15623;53.986;11.676;2022-11-23T06:37:14;108.90;;;40.23;;
15218;SDS011;15623;53.986;11.676;2022-11-23T06:39:41;107.03;;;37.77;;
15218;SDS011;15623;53.986;11.676;2022-11-23T06:42:08;97.33;;;34.57;;
15218;SDS011;15623;53.986;11.676;2022-11-23T06:44:38;102.70;;;37.00;;
15218;SDS011;15623;53.986;11.676;2022-11-23T06:47:05;100.27;;;34.93;;
15218;SDS011;15623;53.986;11.676;2022-11-23T06:49:32;105.67;;;36.00;;
15218;SDS011;15623;53.986;11.676;2022-11-23T06:52:00;96.37;;;36.80;;
15218;SDS011;15623;53.986;11.676;2022-11-23T06:54:27;85.77;;;34.03;;
15218;SDS011;15623;53.986;11.676;2022-11-23T06:56:54;98.93;;;34.40;;
15218;SDS011;15623;53.986;11.676;2022-11-23T06:59:21;89.77;;;31.50;;
15218;SDS011;15623;53.986;11.676;2022-11-23T07:01:50;90.13;;;32.90;;
15218;SDS011;15623;53.986;11.676;2022-11-23T07:04:18;88.37;;;32.17;;
15218;SDS011;15623;53.986;11.676;2022-11-23T07:06:45;95.17;;;35.13;;
15218;SDS011;15623;53.986;11.676;2022-11-23T07:09:13;88.03;;;32.83;;
15218;SDS011;15623;53.986;11.676;2022-11-23T07:11:41;85.07;;;31.83;;
15218;SDS011;15623;53.986;11.676;2022-11-23T07:14:08;83.43;;;32.33;;
15218;SDS011;15623;53.986;11.676;2022-11-23T07:16:36;97.93;;;35.10;;
15218;SDS011;15623;53.986;11.676;2022-11-23T07:19:05;87.27;;;33.20;;
15218;SDS011;15623;53.986;11.676;2022-11-23T07:21:32;88.70;;;34.80;;
15218;SDS011;15623;53.986;11.676;2022-11-23T07:23:59;90.60;;;34.93;;
15218;SDS011;15623;53.986;11.676;2022-11-23T07:26:26;92.97;;;35.27;;
15218;SDS011;15623;53.986;11.676;2022-11-23T07:28:54;112.53;;;45.63;;
15218;SDS011;15623;53.986;11.676;2022-11-23T07:31:21;81.93;;;33.57;;
15218;SDS011;15623;53.986;11.676;2022-11-23T07:33:48;81.50;;;33.67;;
15218;SDS011;15623;53.986;11.676;2022-11-23T07:36:18;92.03;;;31.60;;
15218;SDS011;15623;53.986;11.676;2022-11-23T07:38:45;84.47;;;31.13;;
15218;SDS011;15623;53.986;11.676;2022-11-23T07:41:13;84.43;;;32.83;;
15218;SDS011;15623;53.986;11.676;2022-11-23T07:43:40;85.70;;;31.70;;
15218;SDS011;15623;53.986;11.676;2022-11-23T07:46:07;80.57;;;32.63;;
15218;SDS011;15623;53.986;11.676;2022-11-23T07:48:35;78.57;;;30.23;;
15218;SDS011;15623;53.986;11.676;2022-11-23T07:51:02;80.70;;;31.37;;
15218;SDS011;15623;53.986;11.676;2022-11-23T07:53:31;101.73;;;42.10;;
15218;SDS011;15623;53.986;11.676;2022-11-23T07:56:00;97.50;;;43.00;;
15218;SDS011;15623;53.986;11.676;2022-11-23T07:58:27;117.60;;;46.80;;
15218;SDS011;15623;53.986;11.676;2022-11-23T08:00:56;85.07;;;36.77;;
15218;SDS011;15623;53.986;11.676;2022-11-23T08:03:23;101.73;;;48.17;;
15218;SDS011;15623;53.986;11.676;2022-11-23T08:05:51;75.17;;;31.87;;
15218;SDS011;15623;53.986;11.676;2022-11-23T08:08:18;79.93;;;34.73;;
15218;SDS011;15623;53.986;11.676;2022-11-23T08:10:47;79.37;;;32.97;;
15218;SDS011;15623;53.986;11.676;2022-11-23T08:13:14;79.37;;;34.73;;
15218;SDS011;15623;53.986;11.676;2022-11-23T08:15:41;76.00;;;30.43;;
15218;SDS011;15623;53.986;11.676;2022-11-23T08:18:09;66.50;;;29.37;;
15218;SDS011;15623;53.986;11.676;2022-11-23T08:20:36;72.93;;;29.80;;
15218;SDS011;15623;53.986;11.676;2022-11-23T08:23:03;72.83;;;30.83;;
15218;SDS011;15623;53.986;11.676;2022-11-23T08:25:31;71.63;;;30.70;;
15218;SDS011;15623;53.986;11.676;2022-11-23T08:28:00;71.03;;;30.07;;
15218;SDS011;15623;53.986;11.676;2022-11-23T08:30:28;70.53;;;28.17;;
15218;SDS011;15623;53.986;11.676;2022-11-23T08:32:56;69.60;;;29.17;;
15218;SDS011;15623;53.986;11.676;2022-11-23T08:35:23;72.23;;;29.20;;
15218;SDS011;15623;53.986;11.676;2022-11-23T08:37:51;67.87;;;29.60;;
15218;SDS011;15623;53.986;11.676;2022-11-23T08:40:18;66.23;;;29.33;;
15218;SDS011;15623;53.986;11.676;2022-11-23T08:42:45;66.70;;;30.23;;
15218;SDS011;15623;53.986;11.676;2022-11-23T08:45:14;71.23;;;29.80;;
15218;SDS011;15623;53.986;11.676;2022-11-23T08:47:42;65.17;;;30.37;;
15218;SDS011;15623;53.986;11.676;2022-11-23T08:50:09;56.23;;;26.93;;
15218;SDS011;15623;53.986;11.676;2022-11-23T08:52:36;64.43;;;27.30;;
15218;SDS011;15623;53.986;11.676;2022-11-23T08:55:04;60.97;;;26.93;;
15218;SDS011;15623;53.986;11.676;2022-11-23T08:57:32;62.63;;;27.87;;
15218;SDS011;15623;53.986;11.676;2022-11-23T08:59:59;61.97;;;26.23;;
15218;SDS011;15623;53.986;11.676;2022-11-23T09:02:28;56.27;;;25.80;;
15218;SDS011;15623;53.986;11.676;2022-11-23T09:04:56;54.30;;;26.03;;
15218;SDS011;15623;53.986;11.676;2022-11-23T09:07:24;55.37;;;26.33;;
15218;SDS011;15623;53.986;11.676;2022-11-23T09:09:52;55.47;;;26.03;;
15218;SDS011;15623;53.986;11.676;2022-11-23T09:12:19;59.33;;;25.93;;
15218;SDS011;15623;53.986;11.676;2022-11-23T09:14:46;59.23;;;26.10;;
15218;SDS011;15623;53.986;11.676;2022-11-23T09:17:13;55.00;;;25.07;;
15218;SDS011;15623;53.986;11.676;2022-11-23T09:19:42;56.50;;;25.63;;
15218;SDS011;15623;53.986;11.676;2022-11-23T09:22:09;50.90;;;24.93;;
15218;SDS011;15623;53.986;11.676;2022-11-23T09:24:37;50.50;;;24.97;;
15218;SDS011;15623;53.986;11.676;2022-11-23T09:27:04;52.70;;;24.20;;
15218;SDS011;15623;53.986;11.676;2022-11-23T09:29:31;53.07;;;24.87;;
15218;SDS011;15623;53.986;11.676;2022-11-23T09:32:00;52.13;;;23.77;;
15218;SDS011;15623;53.986;11.676;2022-11-23T09:34:27;47.87;;;23.63;;
15218;SDS011;15623;53.986;11.676;2022-11-23T09:36:56;62.00;;;33.50;;
15218;SDS011;15623;53.986;11.676;2022-11-23T09:39:23;62.97;;;29.43;;
15218;SDS011;15623;53.986;11.676;2022-11-23T09:41:57;48.40;;;24.23;;
15218;SDS011;15623;53.986;11.676;2022-11-23T09:44:29;49.47;;;23.87;;
15218;SDS011;15623;53.986;11.676;2022-11-23T09:47:02;50.13;;;23.27;;
15218;SDS011;15623;53.986;11.676;2022-11-23T09:49:32;46.37;;;23.33;;
15218;SDS011;15623;53.986;11.676;2022-11-23T09:52:07;44.20;;;23.30;;
15218;SDS011;15623;53.986;11.676;2022-11-23T09:54:35;45.20;;;23.53;;
15218;SDS011;15623;53.986;11.676;2022-11-23T09:57:03;44.60;;;23.13;;
15218;SDS011;15623;53.986;11.676;2022-11-23T09:59:35;40.77;;;20.73;;
15218;SDS011;15623;53.986;11.676;2022-11-23T10:02:04;40.13;;;21.43;;
15218;SDS011;15623;53.986;11.676;2022-11-23T10:04:33;41.70;;;21.57;;
15218;SDS011;15623;53.986;11.676;2022-11-23T10:07:02;41.93;;;21.13;;
15218;SDS011;15623;53.986;11.676;2022-11-23T10:09:37;40.80;;;20.43;;
15218;SDS011;15623;53.986;11.676;2022-11-23T10:12:12;41.90;;;21.13;;
15218;SDS011;15623;53.986;11.676;2022-11-23T10:14:47;36.93;;;20.43;;
15218;SDS011;15623;53.986;11.676;2022-11-23T10:17:19;41.70;;;21.77;;
15218;SDS011;15623;53.986;11.676;2022-11-23T10:19:55;41.60;;;20.67;;
15218;SDS011;15623;53.986;11.676;2022-11-23T10:22:29;39.50;;;20.03;;
15218;SDS011;15623;53.986;11.676;2022-11-23T10:24:58;43.63;;;20.33;;
15218;SDS011;15623;53.986;11.676;2022-11-23T10:27:27;40.27;;;20.67;;
15218;SDS011;15623;53.986;11.676;2022-11-23T10:29:55;40.47;;;21.23;;
15218;SDS011;15623;53.986;11.676;2022-11-23T10:32:25;36.03;;;19.80;;
15218;SDS011;15623;53.986;11.676;2022-11-23T10:34:57;36.17;;;19.90;;
15218;SDS011;15623;53.986;11.676;2022-11-23T10:37:25;35.33;;;19.60;;
15218;SDS011;15623;53.986;11.676;2022-11-23T10:39:52;36.50;;;18.93;;
15218;SDS011;15623;53.986;11.676;2022-11-23T10:42:22;34.07;;;18.60;;
15218;SDS011;15623;53.986;11.676;2022-11-23T10:44:51;32.70;;;19.00;;
15218;SDS011;15623;53.986;11.676;2022-11-23T10:47:32;34.03;;;19.30;;
15218;SDS011;15623;53.986;11.676;2022-11-23T10:50:00;34.93;;;19.17;;
15218;SDS011;15623;53.986;11.676;2022-11-23T10:52:28;31.20;;;17.40;;
15218;SDS011;15623;53.986;11.676;2022-11-23T10:54:56;27.37;;;17.10;;
15218;SDS011;15623;53.986;11.676;2022-11-23T10:57:29;26.57;;;15.53;;
15218;SDS011;15623;53.986;11.676;2022-11-23T10:59:58;27.57;;;16.50;;
15218;SDS011;15623;53.986;11.676;2022-11-23T11:02:25;27.53;;;16.47;;
15218;SDS011;15623;53.986;11.676;2022-11-23T11:05:12;27.23;;;16.23;;
15218;SDS011;15623;53.986;11.676;2022-11-23T11:07:40;27.87;;;16.53;;
15218;SDS011;15623;53.986;11.676;2022-11-23T11:10:24;27.10;;;15.93;;
15218;SDS011;15623;53.986;11.676;2022-11-23T11:12:56;23.97;;;14.73;;
15218;SDS011;15623;53.986;11.676;2022-11-23T11:15:24;21.73;;;14.83;;
15218;SDS011;15623;53.986;11.676;2022-11-23T11:17:53;22.80;;;14.37;;
15218;SDS011;15623;53.986;11.676;2022-11-23T11:20:28;23.47;;;14.33;;
15218;SDS011;15623;53.986;11.676;2022-11-23T11:22:57;20.37;;;13.13;;
15218;SDS011;15623;53.986;11.676;2022-11-23T11:25:28;22.23;;;14.73;;
15218;SDS011;15623;53.986;11.676;2022-11-23T11:27:57;25.27;;;15.03;;
15218;SDS011;15623;53.986;11.676;2022-11-23T11:30:27;26.80;;;15.80;;
15218;SDS011;15623;53.986;11.676;2022-11-23T11:32:57;23.40;;;15.93;;
15218;SDS011;15623;53.986;11.676;2022-11-23T11:35:28;27.23;;;16.47;;
15218;SDS011;15623;53.986;11.676;2022-11-23T11:37:59;26.30;;;16.63;;
15218;SDS011;15623;53.986;11.676;2022-11-23T11:40:29;28.17;;;16.93;;
15218;SDS011;15623;53.986;11.676;2022-11-23T11:43:01;24.43;;;16.23;;
15218;SDS011;15623;53.986;11.676;2022-11-23T11:45:31;26.40;;;16.27;;
15218;SDS011;15623;53.986;11.676;2022-11-23T11:47:59;21.57;;;14.50;;
15218;SDS011;15623;53.986;11.676;2022-11-23T11:50:29;22.77;;;14.60;;
15218;SDS011;15623;53.986;11.676;2022-11-23T11:52:59;19.03;;;13.00;;
15218;SDS011;15623;53.986;11.676;2022-11-23T11:55:29;18.27;;;13.17;;
15218;SDS011;15623;53.986;11.676;2022-11-23T11:58:03;22.90;;;14.40;;
15218;SDS011;15623;53.986;11.676;2022-11-23T12:00:32;21.43;;;13.67;;
15218;SDS011;15623;53.986;11.676;2022-11-23T12:03:03;23.43;;;14.47;;
15218;SDS011;15623;53.986;11.676;2022-11-23T12:05:35;21.10;;;13.97;;
15218;SDS011;15623;53.986;11.676;2022-11-23T12:08:05;24.43;;;15.27;;
15218;SDS011;15623;53.986;11.676;2022-11-23T12:10:35;25.30;;;15.43;;
15218;SDS011;15623;53.986;11.676;2022-11-23T12:13:06;26.80;;;15.77;;
15218;SDS011;15623;53.986;11.676;2022-11-23T12:15:36;26.80;;;14.93;;
15218;SDS011;15623;53.986;11.676;2022-11-23T12:20:53;22.40;;;15.33;;
15218;SDS011;15623;53.986;11.676;2022-11-23T12:23:25;22.30;;;14.50;;
15218;SDS011;15623;53.986;11.676;2022-11-23T12:26:02;23.13;;;14.50;;
15218;SDS011;15623;53.986;11.676;2022-11-23T12:28:39;26.17;;;15.70;;
15218;SDS011;15623;53.986;11.676;2022-11-23T12:31:11;20.70;;;15.13;;
15218;SDS011;15623;53.986;11.676;2022-11-23T12:33:45;24.77;;;15.50;;
15218;SDS011;15623;53.986;11.676;2022-11-23T12:36:27;21.60;;;14.70;;
15218;SDS011;15623;53.986;11.676;2022-11-23T12:39:00;22.57;;;14.83;;
15218;SDS011;15623;53.986;11.676;2022-11-23T12:41:34;26.50;;;14.80;;
15218;SDS011;15623;53.986;11.676;2022-11-23T12:44:23;22.87;;;14.80;;
15218;SDS011;15623;53.986;11.676;2022-11-23T12:46:57;25.70;;;15.93;;
15218;SDS011;15623;53.986;11.676;2022-11-23T12:49:30;25.70;;;16.00;;
15218;SDS011;15623;53.986;11.676;2022-11-23T12:52:03;23.77;;;15.77;;
15218;SDS011;15623;53.986;11.676;2022-11-23T12:54:36;26.03;;;17.00;;
15218;SDS011;15623;53.986;11.676;2022-11-23T12:57:07;25.23;;;16.13;;
15218;SDS011;15623;53.986;11.676;2022-11-23T12:59:41;22.50;;;15.73;;
15218;SDS011;15623;53.986;11.676;2022-11-23T13:02:11;23.67;;;14.93;;
15218;SDS011;15623;53.986;11.676;2022-11-23T13:07:41;26.00;;;15.20;;
15218;SDS011;15623;53.986;11.676;2022-11-23T13:10:27;28.77;;;17.00;;
15218;SDS011;15623;53.986;11.676;2022-11-23T13:13:00;66.53;;;42.33;;
15218;SDS011;15623;53.986;11.676;2022-11-23T13:15:40;67.90;;;35.73;;
15218;SDS011;15623;53.986;11.676;2022-11-23T13:18:12;60.77;;;32.33;;
15218;SDS011;15623;53.986;11.676;2022-11-23T13:20:48;44.37;;;24.93;;
15218;SDS011;15623;53.986;11.676;2022-11-23T13:23:23;57.57;;;30.43;;
15218;SDS011;15623;53.986;11.676;2022-11-23T13:28:36;42.93;;;26.10;;
15218;SDS011;15623;53.986;11.676;2022-11-23T13:31:18;40.23;;;24.60;;
15218;SDS011;15623;53.986;11.676;2022-11-23T13:33:48;30.73;;;19.17;;
15218;SDS011;15623;53.986;11.676;2022-11-23T13:38:58;28.87;;;17.47;;
15218;SDS011;15623;53.986;11.676;2022-11-23T13:44:21;28.90;;;17.43;;
15218;SDS011;15623;53.986;11.676;2022-11-23T13:47:00;27.43;;;17.40;;
15218;SDS011;15623;53.986;11.676;2022-11-23T13:49:29;24.03;;;15.17;;
15218;SDS011;15623;53.986;11.676;2022-11-23T13:52:23;23.57;;;14.73;;
15218;SDS011;15623;53.986;11.676;2022-11-23T13:54:52;21.33;;;14.70;;
15218;SDS011;15623;53.986;11.676;2022-11-23T13:57:20;21.77;;;14.50;;
15218;SDS011;15623;53.986;11.676;2022-11-23T13:59:47;22.47;;;15.63;;
15218;SDS011;15623;53.986;11.676;2022-11-23T14:07:48;32.20;;;21.30;;
15218;SDS011;15623;53.986;11.676;2022-11-23T14:10:15;29.93;;;21.33;;
15218;SDS011;15623;53.986;11.676;2022-11-23T14:12:45;28.93;;;18.73;;
15218;SDS011;15623;53.986;11.676;2022-11-23T14:15:15;24.57;;;15.60;;
15218;SDS011;15623;53.986;11.676;2022-11-23T14:26:13;29.30;;;18.00;;
15218;SDS011;15623;53.986;11.676;2022-11-23T14:28:48;29.57;;;16.80;;
15218;SDS011;15623;53.986;11.676;2022-11-23T14:31:20;30.50;;;18.60;;
15218;SDS011;15623;53.986;11.676;2022-11-23T14:33:51;31.00;;;18.80;;
15218;SDS011;15623;53.986;11.676;2022-11-23T14:36:22;28.37;;;18.40;;
15218;SDS011;15623;53.986;11.676;2022-11-23T14:41:36;37.37;;;23.40;;
15218;SDS011;15623;53.986;11.676;2022-11-23T14:44:07;34.43;;;19.83;;